createdAt,value
2019-05-07T00:00:43.879Z,8.70
2019-05-07T00:03:12.527Z,8.70
2019-05-07T00:05:42.820Z,8.80
2019-05-07T00:08:12.179Z,8.80
2019-05-07T00:10:42.447Z,8.90
2019-05-07T00:13:12.885Z,8.90
2019-05-07T00:15:42.049Z,8.80
2019-05-07T00:18:12.584Z,8.80
2019-05-07T00:20:42.363Z,8.80
2019-05-07T00:23:12.422Z,8.90
2019-05-07T00:25:42.202Z,8.90
2019-05-07T00:28:12.243Z,8.90
2019-05-07T00:30:42.436Z,8.80
2019-05-07T00:33:13.176Z,8.80
2019-05-07T00:35:43.024Z,8.90
2019-05-07T00:38:13.138Z,8.90
2019-05-07T00:40:49.195Z,8.90
2019-05-07T00:43:22.712Z,8.90
2019-05-07T00:45:59.257Z,8.70
2019-05-07T00:48:27.660Z,8.70
2019-05-07T00:50:57.721Z,8.80
2019-05-07T00:53:26.136Z,8.60
2019-05-07T00:56:01.821Z,8.50
2019-05-07T00:58:32.117Z,8.50
2019-05-07T01:01:02.447Z,8.40
2019-05-07T01:03:32.742Z,8.40
2019-05-07T01:06:02.051Z,8.40
2019-05-07T01:08:32.163Z,8.50
2019-05-07T01:11:02.248Z,8.60
2019-05-07T01:13:32.335Z,8.60
2019-05-07T01:16:02.512Z,8.60
2019-05-07T01:18:32.385Z,8.70
2019-05-07T01:21:02.426Z,8.80
2019-05-07T01:23:32.229Z,8.80
2019-05-07T01:26:03.066Z,8.70
2019-05-07T01:28:33.142Z,8.80
2019-05-07T01:31:02.194Z,8.80
2019-05-07T01:33:33.218Z,8.80
2019-05-07T01:36:03.572Z,8.80
2019-05-07T01:38:33.254Z,8.80
2019-05-07T01:41:02.827Z,8.80
2019-05-07T01:43:32.080Z,8.70
2019-05-07T01:46:02.989Z,8.70
2019-05-07T01:48:32.352Z,8.70
2019-05-07T01:51:03.167Z,8.60
2019-05-07T01:53:32.338Z,8.70
2019-05-07T01:56:03.033Z,8.80
2019-05-07T01:58:33.151Z,8.80
2019-05-07T02:01:02.846Z,8.80
2019-05-07T02:03:33.256Z,8.80
2019-05-07T02:06:03.318Z,8.90
2019-05-07T02:08:39.154Z,8.90
2019-05-07T02:11:12.886Z,8.90
2019-05-07T02:13:42.037Z,8.70
2019-05-07T02:16:12.435Z,8.70
2019-05-07T02:18:42.459Z,8.70
2019-05-07T02:21:12.862Z,8.60
2019-05-07T02:23:42.595Z,8.60
2019-05-07T02:26:13.364Z,8.50
2019-05-07T02:28:42.645Z,8.40
2019-05-07T02:31:14.680Z,8.30
2019-05-07T02:33:43.446Z,8.30
2019-05-07T02:36:14.184Z,8.20
2019-05-07T02:38:53.204Z,8.10
2019-05-07T02:41:23.586Z,7.90
2019-05-07T02:43:53.743Z,7.80
2019-05-07T02:46:36.186Z,7.80
2019-05-07T02:49:05.265Z,7.70
2019-05-07T02:51:35.368Z,7.60
2019-05-07T02:54:14.425Z,7.60
2019-05-07T02:56:43.537Z,7.50
2019-05-07T02:59:13.753Z,7.40
2019-05-07T03:01:43.427Z,7.30
2019-05-07T03:04:12.958Z,7.30
2019-05-07T03:06:44.242Z,7.30
2019-05-07T03:09:14.450Z,7.30
2019-05-07T03:11:43.491Z,7.30
2019-05-07T03:14:14.070Z,7.30
2019-05-07T03:16:47.820Z,7.20
2019-05-07T03:19:13.541Z,7.20
2019-05-07T03:21:54.677Z,7.30
2019-05-07T03:24:29.086Z,7.50
2019-05-07T03:26:58.989Z,7.60
2019-05-07T03:29:27.489Z,7.60
2019-05-07T03:32:05.434Z,7.70
2019-05-07T03:34:38.323Z,7.70
2019-05-07T03:37:08.441Z,7.70
2019-05-07T03:39:37.126Z,7.70
2019-05-07T03:42:05.550Z,7.70
2019-05-07T03:44:44.497Z,7.70
2019-05-07T03:47:15.928Z,7.70
2019-05-07T03:49:44.519Z,7.70
2019-05-07T03:52:13.813Z,7.60
2019-05-07T03:54:43.171Z,7.60
2019-05-07T03:57:15.710Z,7.60
2019-05-07T03:59:43.206Z,7.50
2019-05-07T04:02:14.248Z,7.40
2019-05-07T04:04:43.327Z,7.30
2019-05-07T04:07:13.935Z,7.30
2019-05-07T04:09:43.691Z,7.20
2019-05-07T04:12:13.290Z,7.30
2019-05-07T04:14:43.180Z,7.30
2019-05-07T04:17:17.606Z,7.40
2019-05-07T04:19:44.044Z,7.50
2019-05-07T04:22:13.505Z,7.50
2019-05-07T04:24:49.671Z,7.50
2019-05-07T04:27:25.747Z,7.60
2019-05-07T04:29:54.179Z,7.60
2019-05-07T04:32:24.636Z,7.80
2019-05-07T04:34:55.043Z,7.80
2019-05-07T04:37:24.061Z,7.90
2019-05-07T04:39:53.831Z,7.90
2019-05-07T04:42:24.646Z,8.00
2019-05-07T04:44:54.061Z,8.00
2019-05-07T04:47:34.520Z,8.10
2019-05-07T04:49:53.666Z,8.10
2019-05-07T04:52:23.997Z,8.10
2019-05-07T04:54:52.908Z,8.10
2019-05-07T04:57:27.449Z,8.30
2019-05-07T04:59:57.223Z,8.30
2019-05-07T05:02:43.773Z,8.30
2019-05-07T05:05:13.775Z,8.30
2019-05-07T05:07:43.119Z,8.50
2019-05-07T05:10:13.423Z,8.60
2019-05-07T05:12:42.881Z,8.50
2019-05-07T05:15:12.657Z,8.50
2019-05-07T05:17:49.968Z,8.40
2019-05-07T05:20:13.134Z,8.50
2019-05-07T05:23:00.000Z,8.50
2019-05-07T05:25:32.175Z,8.50
2019-05-07T05:28:02.009Z,8.60
2019-05-07T05:30:38.062Z,8.70
2019-05-07T05:33:06.874Z,8.80
2019-05-07T05:35:36.707Z,8.70
2019-05-07T05:38:06.955Z,8.70
2019-05-07T05:40:35.460Z,8.80
2019-05-07T05:43:12.712Z,9.00
2019-05-07T05:45:42.932Z,9.10
2019-05-07T05:48:13.589Z,9.20
2019-05-07T05:50:58.650Z,9.20
2019-05-07T05:53:43.187Z,9.20
2019-05-07T05:56:18.735Z,9.30
2019-05-07T05:58:59.815Z,9.30
2019-05-07T06:01:32.908Z,9.40
2019-05-07T06:04:21.971Z,9.60
2019-05-07T06:07:08.799Z,9.70
2019-05-07T06:09:32.896Z,9.70
2019-05-07T06:12:03.065Z,9.80
2019-05-07T06:14:33.172Z,9.60
2019-05-07T06:17:15.291Z,9.70
2019-05-07T06:19:45.359Z,9.70
2019-05-07T06:22:16.833Z,9.80
2019-05-07T06:24:53.017Z,9.90
2019-05-07T06:27:22.927Z,9.80
2019-05-07T06:29:52.403Z,9.90
2019-05-07T06:32:22.926Z,10.00
2019-05-07T06:34:52.290Z,10.20
2019-05-07T06:37:22.863Z,10.30
2019-05-07T06:40:04.946Z,10.40
2019-05-07T06:42:52.365Z,10.40
2019-05-07T06:45:28.329Z,10.40
2019-05-07T06:47:56.799Z,10.50
2019-05-07T06:50:25.223Z,10.40
2019-05-07T06:52:53.649Z,10.40
2019-05-07T06:55:22.803Z,10.40
2019-05-07T06:57:52.995Z,10.50
2019-05-07T07:00:24.437Z,10.70
2019-05-07T07:03:04.430Z,10.80
2019-05-07T07:05:34.506Z,10.70
2019-05-07T07:08:23.017Z,10.70
2019-05-07T07:11:09.713Z,10.60
2019-05-07T07:13:38.292Z,10.80
2019-05-07T07:16:06.798Z,10.90
2019-05-07T07:18:48.340Z,11.00
2019-05-07T07:21:05.510Z,11.20
2019-05-07T07:23:33.915Z,11.00
2019-05-07T07:26:03.126Z,11.10
2019-05-07T07:28:32.839Z,11.20
2019-05-07T07:31:03.524Z,11.20
2019-05-07T07:33:33.575Z,11.20
2019-05-07T07:36:02.588Z,11.40
2019-05-07T07:38:33.083Z,11.30
2019-05-07T07:41:12.700Z,11.10
2019-05-07T07:43:41.912Z,11.20
2019-05-07T07:46:13.151Z,11.50
2019-05-07T07:48:43.568Z,11.50
2019-05-07T07:51:13.735Z,11.80
2019-05-07T07:53:42.485Z,11.70
2019-05-07T07:56:24.607Z,11.90
2019-05-07T07:59:03.916Z,12.00
2019-05-07T08:01:52.441Z,12.10
2019-05-07T08:04:22.838Z,12.20
2019-05-07T08:07:03.622Z,12.00
2019-05-07T08:09:35.680Z,12.00
2019-05-07T08:12:05.214Z,12.10
2019-05-07T08:14:33.970Z,12.20
2019-05-07T08:17:04.070Z,12.40
2019-05-07T08:19:32.975Z,12.50
2019-05-07T08:22:02.785Z,12.40
2019-05-07T08:24:32.280Z,12.20
2019-05-07T08:27:02.295Z,12.30
2019-05-07T08:29:32.543Z,12.40
2019-05-07T08:32:09.083Z,12.50
2019-05-07T08:34:42.810Z,12.70
2019-05-07T08:37:12.052Z,12.90
2019-05-07T08:39:42.748Z,13.10
2019-05-07T08:42:12.262Z,13.30
2019-05-07T08:44:45.537Z,13.20
2019-05-07T08:47:15.712Z,13.30
2019-05-07T08:49:44.537Z,13.30
2019-05-07T08:52:13.158Z,13.40
2019-05-07T08:54:42.842Z,13.50
2019-05-07T08:57:12.163Z,13.60
2019-05-07T08:59:43.748Z,13.70
2019-05-07T09:02:12.572Z,13.40
2019-05-07T09:04:41.806Z,13.40
2019-05-07T09:07:12.816Z,13.60
2019-05-07T09:09:42.672Z,13.80
2019-05-07T09:12:12.447Z,14.20
2019-05-07T09:14:42.574Z,14.30
2019-05-07T09:17:12.752Z,14.50
2019-05-07T09:19:50.927Z,14.80
2019-05-07T09:22:12.677Z,14.70
2019-05-07T09:24:42.392Z,14.50
2019-05-07T09:27:18.910Z,14.50
2019-05-07T09:29:57.983Z,14.70
2019-05-07T09:32:32.621Z,14.70
2019-05-07T09:35:02.474Z,14.50
2019-05-07T09:37:32.740Z,14.00
2019-05-07T09:40:02.924Z,14.30
2019-05-07T09:42:33.324Z,14.50
2019-05-07T09:45:02.100Z,14.50
2019-05-07T09:47:32.480Z,14.90
2019-05-07T09:50:05.525Z,14.80
2019-05-07T09:52:32.114Z,15.00
2019-05-07T09:55:10.982Z,15.00
2019-05-07T09:57:34.357Z,15.00
2019-05-07T10:00:02.285Z,15.00
2019-05-07T10:02:32.103Z,15.00
2019-05-07T10:05:02.466Z,15.00
2019-05-07T10:07:32.447Z,15.00
2019-05-07T10:10:03.291Z,15.00
2019-05-07T10:12:42.076Z,15.00
2019-05-07T10:15:12.330Z,15.10
2019-05-07T10:17:49.125Z,15.40
2019-05-07T10:20:22.406Z,15.60
2019-05-07T10:22:48.906Z,15.60
2019-05-07T10:25:17.638Z,15.10
2019-05-07T10:27:46.278Z,15.40
2019-05-07T10:30:15.573Z,15.40
2019-05-07T10:32:44.014Z,15.20
2019-05-07T10:35:13.173Z,15.00
2019-05-07T10:37:42.226Z,15.30
2019-05-07T10:40:12.921Z,15.40
2019-05-07T10:42:42.990Z,15.40
2019-05-07T10:45:21.815Z,15.50
2019-05-07T10:48:03.523Z,16.00
2019-05-07T10:50:38.905Z,16.20
2019-05-07T10:53:03.805Z,16.40
2019-05-07T10:55:33.054Z,16.40
2019-05-07T10:58:02.973Z,16.30
2019-05-07T11:00:33.144Z,16.40
2019-05-07T11:03:02.483Z,16.50
2019-05-07T11:05:32.652Z,16.50
2019-05-07T11:08:02.088Z,16.60
2019-05-07T11:10:32.605Z,16.50
2019-05-07T11:13:02.387Z,16.30
2019-05-07T11:15:32.633Z,16.30
2019-05-07T11:18:19.120Z,16.40
2019-05-07T11:20:50.621Z,16.30
2019-05-07T11:23:17.744Z,16.50
2019-05-07T11:25:46.196Z,16.70
2019-05-07T11:28:15.066Z,17.60
2019-05-07T11:30:44.151Z,18.10
2019-05-07T11:33:13.009Z,18.40
2019-05-07T11:35:42.298Z,19.00
2019-05-07T11:38:18.647Z,19.40
2019-05-07T11:40:42.687Z,19.10
2019-05-07T11:43:15.580Z,19.40
2019-05-07T11:45:45.661Z,19.40
2019-05-07T11:48:14.508Z,18.80
2019-05-07T11:50:54.216Z,19.00
2019-05-07T11:53:18.967Z,19.20
2019-05-07T11:55:47.733Z,19.10
2019-05-07T11:58:16.571Z,19.30
2019-05-07T12:00:47.087Z,19.50
2019-05-07T12:03:15.705Z,18.90
2019-05-07T12:05:44.479Z,18.80
2019-05-07T12:08:13.305Z,18.80
2019-05-07T12:10:41.937Z,18.80
2019-05-07T12:13:12.632Z,18.70
2019-05-07T12:15:42.879Z,18.60
2019-05-07T12:18:11.941Z,18.50
2019-05-07T12:20:40.785Z,18.40
2019-05-07T12:23:09.435Z,18.50
2019-05-07T12:25:37.936Z,18.20
2019-05-07T12:28:06.523Z,18.50
2019-05-07T12:30:51.798Z,19.10
2019-05-07T12:33:32.529Z,19.80
2019-05-07T12:36:01.991Z,19.90
2019-05-07T12:38:32.387Z,20.40
2019-05-07T12:41:02.931Z,20.40
2019-05-07T12:43:31.899Z,20.70
2019-05-07T12:46:02.716Z,21.80
2019-05-07T12:48:30.950Z,22.60
2019-05-07T12:50:59.646Z,22.20
2019-05-07T12:53:31.444Z,21.80
2019-05-07T12:56:02.184Z,21.20
2019-05-07T12:58:32.315Z,21.40
2019-05-07T13:01:02.935Z,21.80
2019-05-07T13:03:33.005Z,21.30
2019-05-07T13:06:02.508Z,20.20
2019-05-07T13:08:32.984Z,20.00
2019-05-07T13:11:03.070Z,20.00
2019-05-07T13:13:32.134Z,19.40
2019-05-07T13:16:02.897Z,19.50
2019-05-07T13:18:31.453Z,19.40
2019-05-07T13:20:59.885Z,19.30
2019-05-07T13:23:28.588Z,20.20
2019-05-07T13:25:57.040Z,20.70
2019-05-07T13:28:25.439Z,22.10
2019-05-07T13:30:53.888Z,22.90
2019-05-07T13:33:23.265Z,23.30
2019-05-07T13:35:52.371Z,22.60
2019-05-07T13:38:34.920Z,21.80
2019-05-07T13:41:20.005Z,21.40
2019-05-07T13:44:02.922Z,21.10
2019-05-07T13:46:33.279Z,21.00
2019-05-07T13:49:02.154Z,21.00
2019-05-07T13:51:33.627Z,21.50
2019-05-07T13:54:02.118Z,21.40
2019-05-07T13:56:32.582Z,20.90
2019-05-07T13:59:02.326Z,19.80
2019-05-07T14:01:32.977Z,19.10
2019-05-07T14:04:03.812Z,18.40
2019-05-07T14:06:43.000Z,18.10
2019-05-07T14:09:23.892Z,18.30
2019-05-07T14:11:52.796Z,18.00
2019-05-07T14:14:22.407Z,17.90
2019-05-07T14:16:53.023Z,17.70
2019-05-07T14:19:22.402Z,17.60
2019-05-07T14:21:52.564Z,17.50
2019-05-07T14:24:22.430Z,16.70
2019-05-07T14:26:52.817Z,16.40
2019-05-07T14:29:24.445Z,15.80
2019-05-07T14:32:02.479Z,15.30
2019-05-07T14:34:35.612Z,15.10
2019-05-07T14:37:08.786Z,14.90
2019-05-07T14:39:37.229Z,14.10
2019-05-07T14:42:13.006Z,13.80
2019-05-07T14:44:48.269Z,13.70
2019-05-07T14:47:18.243Z,13.40
2019-05-07T14:49:47.399Z,13.20
2019-05-07T14:52:29.188Z,13.20
2019-05-07T14:54:46.375Z,13.30
2019-05-07T14:57:14.806Z,13.30
2019-05-07T14:59:43.414Z,13.40
2019-05-07T15:02:54.373Z,13.60
2019-05-07T15:05:22.815Z,13.80
2019-05-07T15:07:51.383Z,14.30
2019-05-07T15:10:22.093Z,14.60
2019-05-07T15:12:52.228Z,14.90
2019-05-07T15:15:21.966Z,15.50
2019-05-07T15:17:58.351Z,16.10
2019-05-07T15:20:27.113Z,16.30
2019-05-07T15:23:13.564Z,16.60
2019-05-07T15:25:42.450Z,16.90
2019-05-07T15:28:12.275Z,16.80
2019-05-07T15:30:57.291Z,17.00
2019-05-07T15:33:25.803Z,17.20
2019-05-07T15:35:54.543Z,17.50
2019-05-07T15:38:23.049Z,17.60
2019-05-07T15:40:51.900Z,17.60
2019-05-07T15:43:21.150Z,17.80
2019-05-07T15:45:49.707Z,18.00
2019-05-07T15:48:18.155Z,18.20
2019-05-07T15:50:46.683Z,18.20
2019-05-07T15:53:16.741Z,18.40
2019-05-07T15:55:45.143Z,18.60
2019-05-07T15:58:13.594Z,18.60
2019-05-07T16:00:42.645Z,18.50
2019-05-07T16:03:12.764Z,18.40
2019-05-07T16:05:42.443Z,18.40
2019-05-07T16:08:12.924Z,18.60
2019-05-07T16:10:42.665Z,18.80
2019-05-07T16:13:13.748Z,18.60
2019-05-07T16:15:42.830Z,19.00
2019-05-07T16:18:18.903Z,19.70
2019-05-07T16:20:47.313Z,20.00
2019-05-07T16:23:18.149Z,20.20
2019-05-07T16:25:46.218Z,20.40
2019-05-07T16:28:14.669Z,20.40
2019-05-07T16:30:43.135Z,20.50
2019-05-07T16:33:12.811Z,20.40
2019-05-07T16:35:42.495Z,20.30
2019-05-07T16:38:14.494Z,20.10
2019-05-07T16:40:42.876Z,20.00
2019-05-07T16:43:12.033Z,19.80
2019-05-07T16:45:42.382Z,19.60
2019-05-07T16:48:11.888Z,19.50
2019-05-07T16:50:40.640Z,19.30
2019-05-07T16:53:09.375Z,19.10
2019-05-07T16:55:37.786Z,18.90
2019-05-07T16:58:07.877Z,18.80
2019-05-07T17:00:43.775Z,18.60
2019-05-07T17:03:13.828Z,18.60
2019-05-07T17:05:42.987Z,18.90
2019-05-07T17:08:13.134Z,19.40
2019-05-07T17:10:42.462Z,20.20
2019-05-07T17:13:12.532Z,20.80
2019-05-07T17:15:55.026Z,21.40
2019-05-07T17:18:24.695Z,21.90
2019-05-07T17:20:54.583Z,22.20
2019-05-07T17:23:23.247Z,22.50
2019-05-07T17:25:52.555Z,22.50
2019-05-07T17:28:22.898Z,22.70
2019-05-07T17:30:52.442Z,22.60
2019-05-07T17:33:22.982Z,22.70
2019-05-07T17:35:51.969Z,22.70
2019-05-07T17:38:22.867Z,22.80
2019-05-07T17:40:52.115Z,22.80
2019-05-07T17:43:21.945Z,22.70
2019-05-07T17:45:52.253Z,22.50
2019-05-07T17:48:23.057Z,22.00
2019-05-07T17:51:08.158Z,21.50
2019-05-07T17:53:36.959Z,21.00
2019-05-07T17:56:05.535Z,20.50
2019-05-07T17:58:34.326Z,20.00
2019-05-07T18:01:04.553Z,19.50
2019-05-07T18:03:34.417Z,19.00
2019-05-07T18:06:03.264Z,18.60
2019-05-07T18:08:32.451Z,18.40
2019-05-07T18:11:02.290Z,18.00
2019-05-07T18:13:32.290Z,17.70
2019-05-07T18:16:22.238Z,17.40
2019-05-07T18:18:52.011Z,17.20
2019-05-07T18:21:22.018Z,16.90
2019-05-07T18:23:51.722Z,16.70
2019-05-07T18:26:28.102Z,16.50
2019-05-07T18:28:52.225Z,16.40
2019-05-07T18:31:22.775Z,16.20
2019-05-07T18:33:58.951Z,15.90
2019-05-07T18:36:27.817Z,15.80
2019-05-07T18:38:56.339Z,15.60
2019-05-07T18:41:24.956Z,15.40
2019-05-07T18:43:54.695Z,15.30
2019-05-07T18:46:23.406Z,15.10
2019-05-07T18:48:51.951Z,15.10
2019-05-07T18:51:20.398Z,15.00
2019-05-07T18:53:48.979Z,14.90
2019-05-07T18:56:17.566Z,14.70
2019-05-07T18:58:46.055Z,14.60
2019-05-07T19:01:15.769Z,14.50
2019-05-07T19:03:44.447Z,14.40
2019-05-07T19:06:13.644Z,14.20
2019-05-07T19:08:42.377Z,14.10
2019-05-07T19:11:12.248Z,14.00
2019-05-07T19:13:41.982Z,13.90
2019-05-07T19:16:12.392Z,13.70
2019-05-07T19:18:42.996Z,13.60
2019-05-07T19:21:11.061Z,13.50
2019-05-07T19:23:42.186Z,13.30
2019-05-07T19:26:10.051Z,13.20
2019-05-07T19:28:38.537Z,13.10
2019-05-07T19:31:07.377Z,13.00
2019-05-07T19:33:35.817Z,12.90
2019-05-07T19:36:07.370Z,12.90
2019-05-07T19:38:35.775Z,12.80
2019-05-07T19:41:04.235Z,12.70
2019-05-07T19:43:35.977Z,12.60
2019-05-07T19:46:02.988Z,12.60
2019-05-07T19:48:32.383Z,12.60
2019-05-07T19:51:02.859Z,12.60
2019-05-07T19:53:32.692Z,12.60
2019-05-07T19:56:05.532Z,12.50
2019-05-07T19:58:34.057Z,12.50
2019-05-07T20:01:04.141Z,12.50
2019-05-07T20:03:32.574Z,12.40
2019-05-07T20:06:02.425Z,12.30
2019-05-07T20:08:32.328Z,12.30
2019-05-07T20:11:08.295Z,12.20
2019-05-07T20:13:36.722Z,12.20
2019-05-07T20:16:12.873Z,12.20
2019-05-07T20:18:42.854Z,12.20
2019-05-07T20:21:12.365Z,12.10
2019-05-07T20:23:42.613Z,12.10
2019-05-07T20:26:12.651Z,12.00
2019-05-07T20:28:41.765Z,11.90
2019-05-07T20:31:12.300Z,11.90
2019-05-07T20:33:42.268Z,11.90
2019-05-07T20:36:11.390Z,11.80
2019-05-07T20:38:39.799Z,11.70
2019-05-07T20:41:08.233Z,11.70
2019-05-07T20:43:36.643Z,11.60
2019-05-07T20:46:05.085Z,11.60
2019-05-07T20:48:33.506Z,11.50
2019-05-07T20:51:01.930Z,11.50
2019-05-07T20:53:48.422Z,11.40
2019-05-07T20:56:18.614Z,11.30
2019-05-07T20:58:47.433Z,11.30
2019-05-07T21:01:16.219Z,11.20
2019-05-07T21:03:44.631Z,11.20
2019-05-07T21:06:13.070Z,11.20
2019-05-07T21:08:42.770Z,11.10
2019-05-07T21:11:11.998Z,11.10
2019-05-07T21:13:42.680Z,11.10
2019-05-07T21:16:12.600Z,11.00
2019-05-07T21:18:42.177Z,11.00
2019-05-07T21:21:12.463Z,11.00
2019-05-07T21:23:43.201Z,10.90
2019-05-07T21:26:13.039Z,10.90
2019-05-07T21:28:43.173Z,10.80
2019-05-07T21:31:11.959Z,10.70
2019-05-07T21:33:42.730Z,10.70
2019-05-07T21:36:12.089Z,10.60
2019-05-07T21:38:42.498Z,10.60
2019-05-07T21:41:12.850Z,10.50
2019-05-07T21:43:43.082Z,10.50
2019-05-07T21:46:12.814Z,10.50
2019-05-07T21:48:41.784Z,10.40
2019-05-07T21:51:12.240Z,10.40
2019-05-07T21:53:44.926Z,10.30
2019-05-07T21:56:15.353Z,10.30
2019-05-07T21:58:45.417Z,10.30
2019-05-07T22:01:16.121Z,10.20
2019-05-07T22:03:47.030Z,10.20
2019-05-07T22:06:15.463Z,10.10
2019-05-07T22:08:43.886Z,10.00
2019-05-07T22:11:12.558Z,10.00
2019-05-07T22:13:43.300Z,9.90
2019-05-07T22:16:13.072Z,9.90
2019-05-07T22:18:42.729Z,9.80
2019-05-07T22:21:12.464Z,9.80
2019-05-07T22:23:42.827Z,9.70
2019-05-07T22:26:20.303Z,9.70
2019-05-07T22:28:42.118Z,9.60
2019-05-07T22:31:15.428Z,9.60
2019-05-07T22:33:54.713Z,9.50
2019-05-07T22:36:23.221Z,9.50
2019-05-07T22:38:52.655Z,9.50
2019-05-07T22:41:22.442Z,9.50
2019-05-07T22:43:51.673Z,9.40
2019-05-07T22:46:22.199Z,9.40
2019-05-07T22:48:50.447Z,9.30
2019-05-07T22:51:19.210Z,9.30
2019-05-07T22:53:47.696Z,9.30
2019-05-07T22:56:16.303Z,9.30
2019-05-07T22:58:46.354Z,9.20
2019-05-07T23:01:16.416Z,9.20
2019-05-07T23:03:45.118Z,9.20
2019-05-07T23:06:13.587Z,9.10
2019-05-07T23:08:42.544Z,9.00
2019-05-07T23:11:12.213Z,9.00
2019-05-07T23:13:42.750Z,9.00
2019-05-07T23:16:12.507Z,9.00
2019-05-07T23:18:42.920Z,9.00
2019-05-07T23:21:11.845Z,8.90
2019-05-07T23:23:42.254Z,8.90
2019-05-07T23:26:12.179Z,8.80
2019-05-07T23:28:41.856Z,8.80
2019-05-07T23:31:12.080Z,8.70
2019-05-07T23:33:40.790Z,8.70
2019-05-07T23:36:09.474Z,8.70
2019-05-07T23:38:37.882Z,8.60
2019-05-07T23:41:12.666Z,8.60
2019-05-07T23:43:42.415Z,8.60
2019-05-07T23:46:12.833Z,8.60
2019-05-07T23:48:42.718Z,8.60
2019-05-07T23:51:12.603Z,8.50
2019-05-07T23:53:44.209Z,8.50
2019-05-07T23:56:13.133Z,8.50
2019-05-07T23:58:42.018Z,8.50
